Time;durP1;ratioP1;P1;durP2;ratioP2;P2;SDS_P1;SDS_P2;PMS_P1;PMS_P2;Temp;Humidity;BMP_temperature;BMP_pressure;BME280_temperature;BME280_humidity;BME280_pressure;Samples;Min_cycle;Max_cycle;Signal;HPM_P1;HPM_P2
2022/02/02 00:00:38;;;;;;;74.20;10.23;;;5.50;99.90;;;;;;5034895;28;20072;-73
2022/02/02 00:03:10;;;;;;;82.20;11.15;;;5.50;99.90;;;;;;5035455;28;20045;-73
2022/02/02 00:08:58;;;;;;;75.20;11.38;;;5.40;99.90;;;;;;5035596;28;20029;-74
2022/02/02 00:19:05;;;;;;;62.80;9.93;;;5.70;99.90;;;;;;5035285;28;20151;-73
2022/02/02 00:24:09;;;;;;;60.78;8.32;;;5.60;99.90;;;;;;5035680;28;20029;-73
2022/02/02 00:26:39;;;;;;;59.60;8.32;;;5.60;99.90;;;;;;5035027;28;20107;-73
2022/02/02 00:29:11;;;;;;;49.00;6.50;;;5.70;99.90;;;;;;5035475;28;20469;-73
2022/02/02 00:31:42;;;;;;;51.40;7.82;;;5.70;99.90;;;;;;5035227;28;20028;-73
2022/02/02 00:34:13;;;;;;;50.17;7.47;;;5.60;99.90;;;;;;5035161;28;20022;-73
2022/02/02 00:36:58;;;;;;;52.60;5.28;;;5.60;99.90;;;;;;5034850;28;20100;-73
2022/02/02 00:39:24;;;;;;;44.47;7.07;;;5.60;99.90;;;;;;5034743;28;20482;-73
2022/02/02 00:41:53;;;;;;;37.15;5.45;;;5.50;99.90;;;;;;5034703;28;20025;-73
2022/02/02 00:44:19;;;;;;;43.30;7.05;;;5.50;99.90;;;;;;5034637;28;20441;-73
2022/02/02 00:46:45;;;;;;;64.00;8.40;;;5.50;99.90;;;;;;5033970;28;20029;-73
2022/02/02 00:49:11;;;;;;;65.03;8.60;;;5.50;99.90;;;;;;5034525;28;20025;-73
2022/02/02 00:54:03;;;;;;;42.88;8.15;;;5.50;99.90;;;;;;5034485;28;20017;-73
2022/02/02 00:56:29;;;;;;;70.63;9.60;;;5.50;99.90;;;;;;5034425;28;20014;-73
2022/02/02 00:58:55;;;;;;;63.00;9.32;;;5.50;99.90;;;;;;5034610;28;20100;-73
2022/02/02 01:01:21;;;;;;;82.82;9.07;;;5.50;99.90;;;;;;5034253;28;20068;-73
2022/02/02 01:03:46;;;;;;;60.47;8.55;;;5.50;99.90;;;;;;5034270;28;20025;-73
2022/02/02 01:06:16;;;;;;;66.25;9.68;;;5.50;99.90;;;;;;5034233;28;20490;-73
2022/02/02 01:11:46;;;;;;;75.63;11.05;;;5.50;99.90;;;;;;5034398;28;20021;-73
2022/02/02 01:15:18;;;;;;;78.82;10.15;;;5.50;99.90;;;;;;5034396;28;20100;-73
2022/02/02 01:17:44;;;;;;;83.25;10.23;;;5.50;99.90;;;;;;5033800;28;20033;-73
2022/02/02 01:27:48;;;;;;;77.07;9.30;;;5.50;99.90;;;;;;5000719;28;20393;-73
2022/02/02 01:28:42;;;;;;;62.33;8.80;;;5.60;99.90;;;;;;5033780;28;20040;-73
2022/02/02 01:31:08;;;;;;;65.57;11.20;;;5.60;99.90;;;;;;5033769;28;20025;-73
2022/02/02 01:33:34;;;;;;;77.15;10.00;;;5.70;99.90;;;;;;5034069;28;20035;-73
2022/02/02 01:36:01;;;;;;;76.75;10.40;;;5.70;99.90;;;;;;5034005;28;20108;-73
2022/02/02 01:38:30;;;;;;;44.83;7.65;;;5.60;99.90;;;;;;5033986;28;20017;-75
2022/02/02 01:41:07;;;;;;;52.75;6.93;;;5.30;99.90;;;;;;5015891;28;20071;-74
2022/02/02 01:43:38;;;;;;;70.93;8.23;;;5.10;99.90;;;;;;5033934;28;20104;-74
2022/02/02 01:46:09;;;;;;;75.35;11.27;;;4.90;99.90;;;;;;5033654;28;20061;-75
2022/02/02 01:51:44;;;;;;;70.78;10.13;;;4.80;99.90;;;;;;5033328;28;20401;-74
2022/02/02 01:54:17;;;;;;;87.65;10.93;;;4.80;99.90;;;;;;5033239;28;20032;-74
2022/02/02 01:56:43;;;;;;;83.68;9.60;;;4.80;99.90;;;;;;5033474;28;20064;-74
2022/02/02 01:59:26;;;;;;;95.85;11.18;;;4.80;99.90;;;;;;5033007;28;20025;-74
2022/02/02 02:01:52;;;;;;;71.40;10.18;;;4.90;99.90;;;;;;5033457;28;20064;-74
2022/02/02 02:04:17;;;;;;;72.18;10.88;;;4.90;99.90;;;;;;5033318;28;20034;-74
2022/02/02 02:06:43;;;;;;;71.97;8.40;;;4.80;99.90;;;;;;5015647;28;20025;-74
2022/02/02 02:09:08;;;;;;;68.50;8.45;;;4.80;99.90;;;;;;5015540;28;20022;-74
2022/02/02 02:11:36;;;;;;;62.63;8.93;;;4.90;99.90;;;;;;5033183;28;20075;-74
2022/02/02 02:14:38;;;;;;;78.68;9.48;;;4.90;99.90;;;;;;5033815;28;20437;-74
2022/02/02 02:16:56;;;;;;;70.18;10.90;;;5.00;99.90;;;;;;5033026;28;20032;-75
2022/02/02 02:19:23;;;;;;;52.47;6.68;;;5.00;99.90;;;;;;5033234;28;20116;-74
2022/02/02 02:21:51;;;;;;;71.05;8.48;;;5.00;99.90;;;;;;5033555;28;20056;-74
2022/02/02 02:24:17;;;;;;;60.67;6.80;;;5.00;99.90;;;;;;5033379;28;20028;-74
2022/02/02 02:26:42;;;;;;;36.42;7.60;;;5.10;99.90;;;;;;5033154;28;20025;-74
2022/02/02 02:29:35;;;;;;;56.13;6.55;;;5.00;99.90;;;;;;5015353;28;20044;-74
2022/02/02 02:37:29;;;;;;;75.75;9.07;;;5.10;99.90;;;;;;5033325;28;20021;-74
2022/02/02 02:56:25;;;;;;;42.47;6.95;;;5.20;99.90;;;;;;5032932;28;20037;-76
2022/02/02 02:59:05;;;;;;;53.85;7.05;;;5.20;99.90;;;;;;5032843;28;20022;-76
2022/02/02 03:02:24;;;;;;;60.42;8.25;;;5.20;99.90;;;;;;5033348;28;20032;-76
2022/02/02 03:59:02;;;;;;;43.22;6.63;;;5.00;99.90;;;;;;5035906;28;20167;-75
2022/02/02 04:07:00;;;;;;;43.88;4.43;;;5.00;99.90;;;;;;5035976;28;20072;-76
2022/02/02 04:09:27;;;;;;;46.45;7.47;;;5.00;99.90;;;;;;5035235;28;20547;-76
2022/02/02 04:55:07;;;;;;;45.05;5.97;;;5.10;99.90;;;;;;5034574;28;20421;-75
2022/02/02 05:01:01;;;;;;;50.70;6.72;;;5.10;99.90;;;;;;5034377;28;20075;-75
2022/02/02 05:19:01;;;;;;;59.45;8.23;;;5.20;99.90;;;;;;5034102;28;19912;-75
2022/02/02 05:53:10;;;;;;;51.30;8.60;;;5.00;99.90;;;;;;5033839;28;20025;-75
2022/02/02 05:55:40;;;;;;;56.55;8.23;;;4.90;99.90;;;;;;5033534;28;20439;-75
2022/02/02 05:58:07;;;;;;;55.35;6.75;;;5.00;99.90;;;;;;5033741;28;20037;-75
2022/02/02 06:00:36;;;;;;;48.05;6.53;;;5.00;99.90;;;;;;5033400;28;20385;-75
2022/02/02 06:03:09;;;;;;;46.15;8.07;;;5.00;99.90;;;;;;5033397;28;20156;-75
2022/02/02 06:05:36;;;;;;;54.03;7.47;;;5.00;99.90;;;;;;5034513;28;20393;-75
2022/02/02 06:08:03;;;;;;;49.03;6.43;;;5.00;99.90;;;;;;5033304;28;20028;-75
2022/02/02 06:10:30;;;;;;;49.33;5.97;;;5.00;99.90;;;;;;5033272;28;20025;-75
2022/02/02 06:12:59;;;;;;;64.85;8.38;;;4.90;99.90;;;;;;5033295;28;20021;-75
2022/02/02 06:15:26;;;;;;;67.00;7.53;;;4.90;99.90;;;;;;5033556;28;20069;-75
2022/02/02 06:17:53;;;;;;;49.60;8.43;;;4.90;99.90;;;;;;5033260;28;20052;-75
2022/02/02 06:20:19;;;;;;;55.50;7.30;;;4.90;99.90;;;;;;5033179;28;20022;-75
2022/02/02 06:22:52;;;;;;;53.70;7.13;;;4.90;99.90;;;;;;5033174;28;20029;-75
2022/02/02 06:25:29;;;;;;;50.90;7.28;;;4.90;99.90;;;;;;5033503;28;20029;-75
2022/02/02 06:28:04;;;;;;;59.83;8.30;;;4.80;99.90;;;;;;5033653;28;20033;-75
2022/02/02 06:30:31;;;;;;;58.08;6.35;;;4.80;99.90;;;;;;5033118;28;20050;-75
2022/02/02 06:33:06;;;;;;;49.13;7.13;;;4.80;99.90;;;;;;5033116;28;20382;-75
2022/02/02 06:35:33;;;;;;;57.47;6.53;;;4.80;99.90;;;;;;5033380;28;20013;-75
2022/02/02 06:37:59;;;;;;;48.60;5.00;;;4.80;99.90;;;;;;5033217;28;20025;-75
2022/02/02 06:40:25;;;;;;;51.95;5.60;;;4.80;99.90;;;;;;5032987;28;20484;-75
2022/02/02 06:42:51;;;;;;;64.95;7.85;;;4.80;99.90;;;;;;5033013;28;20022;-75
2022/02/02 06:45:18;;;;;;;49.53;5.80;;;4.70;99.90;;;;;;5034967;28;20104;-75
2022/02/02 06:47:48;;;;;;;49.67;5.22;;;4.70;99.90;;;;;;5036803;28;20026;-75
2022/02/02 06:50:29;;;;;;;57.28;7.38;;;4.70;99.90;;;;;;5036668;28;20038;-75
2022/02/02 06:53:18;;;;;;;70.78;6.82;;;4.70;99.90;;;;;;5037120;28;20057;-75
2022/02/02 06:56:32;;;;;;;45.88;6.25;;;4.70;99.90;;;;;;5036872;28;20548;-75
2022/02/02 06:59:40;;;;;;;54.47;7.18;;;4.80;99.90;;;;;;5035599;28;20509;-75
2022/02/02 07:05:37;;;;;;;45.67;7.93;;;4.80;99.90;;;;;;5036892;28;20078;-75
2022/02/02 07:08:38;;;;;;;40.28;6.95;;;4.80;99.90;;;;;;4956637;29;20055;-76
2022/02/02 07:11:26;;;;;;;38.72;4.88;;;4.90;99.90;;;;;;5036461;28;20041;-76
2022/02/02 07:16:51;;;;;;;39.90;6.30;;;4.80;99.90;;;;;;5036752;28;20033;-76
2022/02/02 07:22:13;;;;;;;44.13;7.00;;;4.90;99.90;;;;;;5036272;28;20390;-75
2022/02/02 07:27:38;;;;;;;50.58;6.05;;;4.90;99.90;;;;;;5036190;28;20488;-75
2022/02/02 07:32:39;;;;;;;64.38;8.57;;;5.00;99.90;;;;;;5035996;28;20167;-75
2022/02/02 07:35:14;;;;;;;56.20;6.40;;;5.00;99.90;;;;;;5018349;28;20113;-75
2022/02/02 07:38:00;;;;;;;52.53;7.93;;;5.00;99.90;;;;;;5036278;28;20025;-75
2022/02/02 07:40:26;;;;;;;43.00;5.57;;;4.90;99.90;;;;;;5036089;28;20026;-75
2022/02/02 07:42:55;;;;;;;45.97;7.07;;;4.90;99.90;;;;;;5035938;28;20029;-75
2022/02/02 07:45:22;;;;;;;35.10;5.95;;;4.90;99.90;;;;;;5036083;28;20025;-75
2022/02/02 07:48:11;;;;;;;46.83;6.97;;;4.90;99.90;;;;;;5035959;28;20018;-75
2022/02/02 07:50:37;;;;;;;51.25;6.45;;;4.90;99.90;;;;;;5035692;28;20025;-75
2022/02/02 07:53:09;;;;;;;58.72;8.13;;;4.90;99.90;;;;;;5035700;28;20028;-75
2022/02/02 07:55:38;;;;;;;53.15;6.90;;;4.90;99.90;;;;;;5035622;28;20029;-75
2022/02/02 07:58:05;;;;;;;43.08;5.20;;;4.80;99.90;;;;;;5035626;28;20389;-75
2022/02/02 08:00:32;;;;;;;45.97;7.30;;;4.80;99.90;;;;;;5036072;28;20033;-75
2022/02/02 08:03:10;;;;;;;47.92;6.53;;;4.90;99.90;;;;;;5035514;28;20021;-76
2022/02/02 08:05:44;;;;;;;51.55;6.15;;;4.80;99.90;;;;;;5035521;28;20104;-76
2022/02/02 08:10:40;;;;;;;51.20;4.93;;;4.90;99.90;;;;;;5035714;28;20072;-75
2022/02/02 08:13:14;;;;;;;63.80;6.70;;;5.00;99.90;;;;;;5035328;28;20112;-76
2022/02/02 08:15:40;;;;;;;49.42;5.47;;;5.00;99.90;;;;;;5035606;28;20100;-76
2022/02/02 08:18:06;;;;;;;37.95;4.65;;;5.00;99.90;;;;;;5035254;28;20453;-76
2022/02/02 08:20:32;;;;;;;41.42;5.20;;;5.00;99.90;;;;;;5035123;28;20029;-76
2022/02/02 08:22:57;;;;;;;55.60;6.50;;;5.00;99.90;;;;;;5035137;28;20032;-75
2022/02/02 08:25:28;;;;;;;44.88;5.07;;;5.00;99.90;;;;;;5017413;28;20029;-75
2022/02/02 08:28:04;;;;;;;48.33;5.72;;;5.00;99.90;;;;;;5035877;28;20436;-72
2022/02/02 08:30:30;;;;;;;45.03;6.63;;;5.00;99.90;;;;;;5035095;28;20055;-72
2022/02/02 08:32:59;;;;;;;35.13;4.95;;;4.90;99.90;;;;;;5034984;28;20021;-72
2022/02/02 08:35:34;;;;;;;23.33;4.85;;;4.90;99.90;;;;;;5034914;28;20371;-73
2022/02/02 08:43:07;;;;;;;43.42;5.72;;;5.00;99.90;;;;;;5034670;28;20075;-72
2022/02/02 08:45:35;;;;;;;30.23;4.32;;;5.00;99.90;;;;;;5034774;28;20159;-72
2022/02/02 08:48:08;;;;;;;41.88;6.18;;;5.00;99.90;;;;;;5034558;28;20030;-72
2022/02/02 08:50:49;;;;;;;31.38;4.85;;;5.00;99.90;;;;;;5035200;28;20033;-72
2022/02/02 08:58:28;;;;;;;53.80;5.70;;;5.00;99.90;;;;;;5034800;28;20070;-72
2022/02/02 09:00:55;;;;;;;58.72;7.30;;;5.10;99.90;;;;;;5034670;28;20386;-73
2022/02/02 09:06:04;;;;;;;55.50;7.05;;;5.00;99.90;;;;;;5034387;28;20041;-73
2022/02/02 09:08:31;;;;;;;40.28;5.97;;;5.10;99.90;;;;;;5034015;28;20030;-72
2022/02/02 09:24:28;;;;;;;35.25;5.05;;;5.40;99.90;;;;;;5034026;28;20108;-72
2022/02/02 09:35:08;;;;;;;;;;;5.50;99.90;;;;;;5034578;28;20493;-72
2022/02/02 09:37:33;;;;;;;36.25;5.10;;;5.60;99.90;;;;;;5033789;28;19948;-72
2022/02/02 09:40:23;;;;;;;38.92;4.50;;;5.60;99.90;;;;;;5033854;28;20480;-72
2022/02/02 09:42:53;;;;;;;39.53;5.45;;;5.50;99.90;;;;;;5034389;28;20022;-72
2022/02/02 09:45:19;;;;;;;43.05;7.35;;;5.60;99.90;;;;;;5034277;28;20032;-72
2022/02/02 09:47:54;;;;;;;39.00;4.82;;;5.70;99.90;;;;;;5033943;28;20041;-72
2022/02/02 09:50:37;;;;;;;30.58;4.95;;;5.70;99.90;;;;;;5034287;28;20029;-72
2022/02/02 09:53:05;;;;;;;27.83;4.45;;;5.80;99.90;;;;;;5016253;28;20052;-72
2022/02/02 10:04:04;;;;;;;;;;;5.70;99.90;;;;;;5034825;28;20032;-72
2022/02/02 10:12:09;;;;;;;30.02;3.78;;;5.80;99.90;;;;;;5033828;28;20057;-73
2022/02/02 10:14:39;;;;;;;30.05;3.58;;;5.90;99.90;;;;;;5033646;28;20426;-72
2022/02/02 10:17:10;;;;;;;28.88;4.25;;;6.00;99.90;;;;;;5033245;28;20104;-72
2022/02/02 10:19:37;;;;;;;34.08;4.18;;;6.00;99.90;;;;;;5034369;28;20428;-72
2022/02/02 10:22:25;;;;;;;24.02;4.28;;;6.10;99.90;;;;;;5037428;28;20022;-72
2022/02/02 10:24:53;;;;;;;24.45;3.50;;;6.20;99.90;;;;;;5037599;28;20026;-72
2022/02/02 10:27:32;;;;;;;35.70;3.47;;;6.30;99.90;;;;;;5037832;28;20067;-72
2022/02/02 10:30:09;;;;;;;30.75;4.75;;;6.40;99.90;;;;;;5037442;28;20474;-73
2022/02/02 10:32:42;;;;;;;47.63;6.05;;;6.30;99.90;;;;;;5037800;28;20049;-72
2022/02/02 10:35:08;;;;;;;34.60;4.88;;;6.30;99.90;;;;;;5037365;28;20072;-72
2022/02/02 10:37:36;;;;;;;46.70;5.40;;;6.30;99.90;;;;;;5037130;28;20363;-72
2022/02/02 10:40:03;;;;;;;35.58;5.85;;;6.40;99.90;;;;;;5037189;28;20021;-73
2022/02/02 10:42:36;;;;;;;25.98;4.07;;;6.40;99.90;;;;;;5037035;28;20109;-72
2022/02/02 10:45:18;;;;;;;39.13;4.13;;;6.40;99.90;;;;;;5037051;28;20029;-72
2022/02/02 10:47:46;;;;;;;35.95;4.20;;;6.30;99.90;;;;;;5036864;28;20260;-72
2022/02/02 10:50:50;;;;;;;32.00;6.05;;;6.10;99.90;;;;;;5036706;28;20057;-72
2022/02/02 10:56:01;;;;;;;27.23;3.50;;;6.20;99.90;;;;;;5037358;28;20432;-73
2022/02/02 11:08:51;;;;;;;22.25;3.50;;;6.30;99.90;;;;;;5036664;28;20029;-72
2022/02/02 11:11:17;;;;;;;23.50;3.75;;;6.30;99.90;;;;;;5036399;28;20023;-72
2022/02/02 11:13:45;;;;;;;19.98;2.33;;;6.30;99.90;;;;;;5036456;28;20371;-72
2022/02/02 11:16:18;;;;;;;17.17;2.97;;;6.30;99.90;;;;;;5036424;28;20032;-72
2022/02/02 11:18:45;;;;;;;26.90;3.35;;;6.40;99.90;;;;;;5036488;28;20496;-72
2022/02/02 11:21:15;;;;;;;27.27;3.60;;;6.40;99.90;;;;;;5036262;28;20041;-72
2022/02/02 11:23:53;;;;;;;23.30;3.95;;;6.40;99.90;;;;;;5036262;28;20500;-72
2022/02/02 11:26:50;;;;;;;25.05;3.92;;;6.40;99.90;;;;;;5036536;28;20454;-72
2022/02/02 11:29:42;;;;;;;19.42;2.50;;;6.30;99.90;;;;;;5036045;28;20099;-72
2022/02/02 11:32:12;;;;;;;27.33;3.35;;;6.30;99.90;;;;;;5035971;28;20018;-72
2022/02/02 11:34:40;;;;;;;20.45;3.33;;;6.40;99.90;;;;;;5036403;28;20018;-72
2022/02/02 11:37:07;;;;;;;29.88;3.75;;;6.40;99.90;;;;;;5036056;28;20084;-72
2022/02/02 11:39:46;;;;;;;25.15;4.55;;;6.50;99.90;;;;;;5035938;28;20112;-72
2022/02/02 11:42:44;;;;;;;20.27;3.20;;;6.60;99.90;;;;;;5036292;28;20030;-72
2022/02/02 11:45:51;;;;;;;19.40;3.80;;;6.50;99.90;;;;;;5036186;28;20022;-72
2022/02/02 11:49:04;;;;;;;38.25;4.50;;;6.50;99.90;;;;;;5025059;28;20042;-72
2022/02/02 11:51:47;;;;;;;23.42;3.30;;;6.60;99.90;;;;;;5035624;28;20401;-72
2022/02/02 11:54:31;;;;;;;30.70;4.07;;;6.60;99.90;;;;;;5035800;28;20021;-72
2022/02/02 11:57:05;;;;;;;32.30;4.75;;;6.70;99.90;;;;;;5035955;28;20458;-72
2022/02/02 12:05:34;;;;;;;29.52;4.05;;;7.00;99.90;;;;;;5035847;28;20117;-72
2022/02/02 12:11:15;;;;;;;20.85;3.28;;;7.30;99.90;;;;;;5035648;28;20032;-72
2022/02/02 13:00:10;;;;;;;20.55;3.22;;;7.60;99.90;;;;;;5034471;28;20036;-72
2022/02/02 13:02:38;;;;;;;25.15;4.32;;;7.60;99.90;;;;;;5016705;28;20060;-72
2022/02/02 13:05:06;;;;;;;33.05;3.40;;;7.60;99.90;;;;;;5034632;28;20382;-72
2022/02/02 13:07:32;;;;;;;24.98;4.05;;;7.80;99.90;;;;;;5034232;28;20029;-72
2022/02/02 13:10:00;;;;;;;41.15;3.55;;;7.60;99.90;;;;;;5034172;28;20024;-72
2022/02/02 13:12:28;;;;;;;25.30;3.72;;;7.50;99.90;;;;;;5034235;28;20041;-72
2022/02/02 13:15:10;;;;;;;40.28;3.95;;;7.70;99.90;;;;;;5034464;28;20461;-72
2022/02/02 13:18:16;;;;;;;22.85;3.25;;;7.30;99.90;;;;;;5034989;28;20374;-72
2022/02/02 13:23:58;;;;;;;37.88;4.53;;;6.80;99.90;;;;;;5034334;28;20032;-72
2022/02/02 13:32:17;;;;;;;33.72;4.97;;;6.90;99.90;;;;;;5034213;28;20070;-72
2022/02/02 14:02:18;;;;;;;30.30;4.75;;;6.70;99.90;;;;;;5033459;28;20044;-72
2022/02/02 14:31:37;;;;;;;29.02;4.45;;;6.70;99.90;;;;;;5033474;28;20501;-72
2022/02/02 14:34:04;;;;;;;26.92;3.42;;;6.80;99.90;;;;;;5033258;28;20101;-72
2022/02/02 14:36:34;;;;;;;35.40;4.22;;;6.70;99.90;;;;;;5015433;28;20425;-72
2022/02/02 14:39:16;;;;;;;27.65;3.67;;;6.80;99.90;;;;;;5033345;28;20070;-72
2022/02/02 14:41:53;;;;;;;36.88;5.78;;;7.00;99.90;;;;;;5015386;28;20463;-72
2022/02/02 14:44:27;;;;;;;27.60;4.00;;;7.30;99.90;;;;;;5033377;28;20363;-72
2022/02/02 14:49:25;;;;;;;40.08;4.60;;;7.30;99.90;;;;;;5033225;28;20465;-72
2022/02/02 14:52:03;;;;;;;37.60;4.90;;;7.20;99.90;;;;;;5033826;28;20496;-75
2022/02/02 15:29:44;;;;;;;;;;;6.20;99.90;;;;;;5036557;28;20032;-75
2022/02/02 15:32:10;;;;;;;30.23;5.03;;;6.10;99.90;;;;;;5036491;28;19905;-75
2022/02/02 15:34:44;;;;;;;29.77;4.38;;;5.90;99.90;;;;;;5036171;28;20445;-75
2022/02/02 15:39:42;;;;;;;38.28;4.03;;;5.50;99.90;;;;;;5036242;28;20028;-74
2022/02/02 16:05:40;;;;;;;31.45;4.22;;;4.70;99.90;;;;;;5035587;28;20048;-74
2022/02/02 16:08:08;;;;;;;38.33;4.85;;;4.60;99.90;;;;;;5036003;28;20028;-74
2022/02/02 16:10:48;;;;;;;34.40;6.00;;;4.60;99.90;;;;;;5035949;28;20409;-74
2022/02/02 16:13:50;;;;;;;28.58;4.07;;;4.60;99.90;;;;;;5035484;28;20017;-74
2022/02/02 16:19:03;;;;;;;33.20;4.07;;;4.60;99.90;;;;;;5034410;28;20389;-74
2022/02/02 16:37:41;;;;;;;40.80;4.78;;;4.70;99.90;;;;;;5034992;28;20508;-74
2022/02/02 16:40:11;;;;;;;41.75;5.65;;;4.70;99.90;;;;;;5035111;28;20029;-74
2022/02/02 16:45:22;;;;;;;26.63;5.18;;;4.70;99.90;;;;;;5035383;28;20087;-74
2022/02/02 16:47:48;;;;;;;28.08;3.42;;;4.70;99.90;;;;;;5034728;28;20032;-74
2022/02/02 16:50:18;;;;;;;44.45;4.93;;;4.70;99.90;;;;;;5034517;28;20033;-74
2022/02/02 16:52:47;;;;;;;33.42;4.78;;;4.60;99.90;;;;;;5034680;28;20025;-74
2022/02/02 16:55:21;;;;;;;37.72;4.38;;;4.60;99.90;;;;;;5034611;28;20018;-74
2022/02/02 16:57:59;;;;;;;29.77;4.93;;;4.50;99.90;;;;;;5034956;28;20022;-74
2022/02/02 17:28:59;;;;;;;37.75;8.18;;;4.10;99.90;;;;;;5034403;28;20052;-74
2022/02/02 17:30:28;;;;;;;33.17;4.65;;;4.00;99.90;;;;;;5031187;28;20064;-73
2022/02/02 17:35:29;;;;;;;27.77;4.53;;;3.90;99.90;;;;;;5033893;28;20025;-74
2022/02/02 17:38:04;;;;;;;35.35;5.43;;;3.80;99.90;;;;;;5034030;28;20022;-74
2022/02/02 17:45:42;;;;;;;55.47;8.32;;;3.80;99.90;;;;;;5033784;28;20024;-74
2022/02/02 18:02:36;;;;;;;71.70;15.90;;;3.70;99.90;;;;;;5033615;28;20107;-74
2022/02/02 18:16:07;;;;;;;41.17;5.55;;;3.70;99.90;;;;;;5033623;28;20026;-74
2022/02/02 18:20:37;;;;;;;43.28;6.25;;;3.60;99.90;;;;;;5033531;28;20470;-73
2022/02/02 18:25:48;;;;;;;30.00;4.47;;;3.50;99.90;;;;;;5033686;28;20026;-74
2022/02/02 18:31:11;;;;;;;41.10;5.53;;;3.50;99.90;;;;;;5033433;28;20109;-75
2022/02/02 18:54:56;;;;;;;29.88;4.43;;;2.40;99.90;;;;;;5037130;28;20056;-74
2022/02/02 18:57:43;;;;;;;24.30;3.13;;;2.30;99.90;;;;;;5037409;28;20025;-74
2022/02/02 19:15:12;;;;;;;21.88;3.47;;;1.70;99.90;;;;;;5036611;28;20072;-74
2022/02/02 19:40:37;;;;;;;32.50;5.78;;;2.80;99.90;;;;;;5036261;28;20569;-73
2022/02/02 19:57:23;;;;;;;55.67;6.07;;;3.80;99.90;;;;;;5035739;28;20032;-74
2022/02/02 20:05:21;;;;;;;47.38;6.75;;;3.90;99.90;;;;;;5036198;28;20037;-74
2022/02/02 20:08:06;;;;;;;60.78;7.00;;;4.00;99.90;;;;;;5035542;28;20030;-74
2022/02/02 20:10:39;;;;;;;46.40;5.82;;;4.00;99.90;;;;;;5035608;28;20056;-74
2022/02/02 20:13:05;;;;;;;64.75;5.93;;;4.10;99.90;;;;;;5035774;28;20021;-74
2022/02/02 20:15:35;;;;;;;54.30;5.18;;;4.10;99.90;;;;;;5035578;28;20022;-74
2022/02/02 20:18:03;;;;;;;55.15;4.72;;;4.10;99.90;;;;;;5035970;28;20029;-74
2022/02/02 20:20:29;;;;;;;65.13;6.30;;;4.20;99.90;;;;;;5035223;28;20102;-74
2022/02/02 20:23:00;;;;;;;60.05;7.03;;;4.20;99.90;;;;;;5035526;28;20021;-73
2022/02/02 20:25:26;;;;;;;52.15;5.15;;;4.40;99.90;;;;;;5035281;28;20075;-73
2022/02/02 20:28:02;;;;;;;55.88;5.55;;;4.40;99.90;;;;;;5035413;28;20025;-74
2022/02/02 20:30:27;;;;;;;46.35;5.75;;;4.40;99.90;;;;;;5017302;28;20026;-74
2022/02/02 20:32:53;;;;;;;61.58;8.27;;;4.50;99.90;;;;;;5035061;28;20022;-74
2022/02/02 20:35:18;;;;;;;53.65;5.68;;;4.50;99.90;;;;;;5035017;28;20025;-74
2022/02/02 20:37:44;;;;;;;44.80;5.95;;;4.60;99.90;;;;;;5035198;28;20022;-74
2022/02/02 20:40:10;;;;;;;77.07;5.60;;;4.70;99.90;;;;;;5034820;28;20025;-74
2022/02/02 21:04:20;;;;;;;52.80;5.78;;;4.40;99.90;;;;;;5034143;28;20164;-75
2022/02/02 21:07:25;;;;;;;54.58;7.57;;;4.30;99.90;;;;;;5034562;28;20116;-75
2022/02/02 21:15:25;;;;;;;63.10;5.97;;;4.20;99.90;;;;;;4992950;28;20037;-75
2022/02/02 21:17:53;;;;;;;50.97;5.38;;;4.20;99.90;;;;;;5018533;28;20117;-75
2022/02/02 21:20:59;;;;;;;59.15;9.32;;;4.10;99.90;;;;;;5034100;28;20044;-75
2022/02/02 21:23:24;;;;;;;67.75;9.30;;;4.20;99.90;;;;;;5031929;28;20077;-75
2022/02/02 21:28:33;;;;;;;74.93;8.50;;;4.10;99.90;;;;;;5034019;28;20032;-76
2022/02/02 21:30:59;;;;;;;71.85;8.13;;;4.10;99.90;;;;;;5033976;28;20427;-75
2022/02/02 21:33:25;;;;;;;53.53;6.53;;;4.10;99.90;;;;;;5033912;28;20047;-75
2022/02/02 21:35:51;;;;;;;73.95;7.45;;;4.20;99.90;;;;;;5033962;28;20017;-75
2022/02/02 21:38:30;;;;;;;79.80;8.80;;;4.30;99.90;;;;;;5033875;28;20017;-75
2022/02/02 21:40:59;;;;;;;64.00;7.85;;;4.40;99.90;;;;;;5033843;28;20029;-75
2022/02/02 21:43:26;;;;;;;59.45;9.18;;;4.40;99.90;;;;;;5034086;28;20024;-75
2022/02/02 21:45:52;;;;;;;69.28;6.55;;;4.40;99.90;;;;;;5033722;28;20025;-75
2022/02/02 21:48:19;;;;;;;69.03;7.72;;;4.40;99.90;;;;;;5033663;28;20021;-75
2022/02/02 21:50:55;;;;;;;73.13;7.30;;;4.40;99.90;;;;;;5033644;28;20029;-74
2022/02/02 21:53:21;;;;;;;51.90;6.10;;;4.40;99.90;;;;;;5034047;28;20024;-75
2022/02/02 21:55:47;;;;;;;73.35;8.32;;;4.40;99.90;;;;;;5034194;28;20029;-75
2022/02/02 21:58:13;;;;;;;49.05;6.68;;;4.50;99.90;;;;;;5033545;28;20099;-74
2022/02/02 22:00:40;;;;;;;68.78;7.22;;;4.40;99.90;;;;;;5033552;28;20389;-74
2022/02/02 22:03:07;;;;;;;58.10;6.53;;;4.40;99.90;;;;;;5033760;28;20029;-74
2022/02/02 22:05:34;;;;;;;67.72;9.10;;;4.40;99.90;;;;;;5033435;28;20109;-74
2022/02/02 22:08:00;;;;;;;66.57;7.07;;;4.30;99.90;;;;;;5033415;28;20044;-74
2022/02/02 22:10:26;;;;;;;67.53;8.20;;;4.30;99.90;;;;;;5033264;28;20108;-74
2022/02/02 22:12:51;;;;;;;75.70;7.65;;;4.30;99.90;;;;;;5033908;28;20061;-74
2022/02/02 22:15:26;;;;;;;57.15;7.20;;;4.20;99.90;;;;;;5033289;28;20045;-74
2022/02/02 22:17:52;;;;;;;74.15;7.22;;;4.20;99.90;;;;;;5033623;28;20032;-74
2022/02/02 22:20:18;;;;;;;69.43;6.90;;;4.10;99.90;;;;;;5033371;28;20022;-74
2022/02/02 22:22:45;;;;;;;62.80;6.88;;;4.10;99.90;;;;;;5033353;28;20076;-74
2022/02/02 22:25:14;;;;;;;63.65;6.93;;;4.20;99.90;;;;;;5033529;28;20035;-74
2022/02/02 22:27:40;;;;;;;73.47;7.72;;;4.20;99.90;;;;;;5033462;28;20021;-74
2022/02/02 22:30:07;;;;;;;55.65;6.82;;;4.20;99.90;;;;;;5033330;28;20108;-74
2022/02/02 22:32:33;;;;;;;66.82;7.75;;;4.30;99.90;;;;;;5033449;28;20025;-74
2022/02/02 22:34:59;;;;;;;59.42;6.72;;;4.20;99.90;;;;;;5033149;28;20359;-74
2022/02/02 22:37:26;;;;;;;54.75;6.75;;;4.30;99.90;;;;;;5033142;28;20018;-74
2022/02/02 22:39:52;;;;;;;50.83;6.50;;;4.20;99.90;;;;;;5033126;28;20071;-74
2022/02/02 22:42:21;;;;;;;72.03;7.40;;;4.20;99.90;;;;;;5033070;28;20026;-74
2022/02/02 22:44:48;;;;;;;55.72;6.72;;;4.30;99.90;;;;;;5033055;28;20022;-74
2022/02/02 22:47:15;;;;;;;45.90;6.00;;;4.30;99.90;;;;;;5033103;28;20500;-74
2022/02/02 22:49:44;;;;;;;63.30;6.68;;;4.30;99.90;;;;;;5032995;28;20474;-74
2022/02/02 22:52:11;;;;;;;56.33;6.20;;;4.40;99.90;;;;;;5033619;28;20104;-74
2022/02/02 22:54:39;;;;;;;76.70;8.98;;;4.40;99.90;;;;;;5032979;28;20473;-74
2022/02/02 22:57:05;;;;;;;47.30;5.80;;;4.30;99.90;;;;;;5033260;28;20378;-74
2022/02/02 22:59:31;;;;;;;46.22;5.60;;;4.40;99.90;;;;;;5032879;28;20037;-74
2022/02/02 23:02:04;;;;;;;83.05;8.82;;;4.30;99.90;;;;;;5032908;28;20022;-74
2022/02/02 23:04:29;;;;;;;65.13;6.43;;;4.30;99.90;;;;;;5033254;28;20036;-74
2022/02/02 23:07:01;;;;;;;61.17;6.65;;;4.30;99.90;;;;;;5032853;28;20112;-74
2022/02/02 23:09:27;;;;;;;66.65;7.05;;;4.30;99.90;;;;;;5032992;28;20032;-74
2022/02/02 23:11:52;;;;;;;65.35;7.30;;;4.30;99.90;;;;;;5032862;28;20025;-74
2022/02/02 23:14:23;;;;;;;75.55;8.50;;;4.30;99.90;;;;;;5032776;28;20021;-74
2022/02/02 23:16:51;;;;;;;61.83;8.02;;;4.40;99.90;;;;;;5032810;28;20088;-74
2022/02/02 23:19:17;;;;;;;61.42;8.02;;;4.50;99.90;;;;;;5032690;28;20048;-74
2022/02/02 23:21:47;;;;;;;54.83;8.05;;;4.50;99.90;;;;;;5032706;28;20470;-74
2022/02/02 23:24:13;;;;;;;66.45;6.45;;;4.50;99.90;;;;;;5033004;28;20038;-74
2022/02/02 23:26:40;;;;;;;62.67;8.52;;;4.60;99.90;;;;;;5033525;28;20028;-74
2022/02/02 23:29:08;;;;;;;66.45;7.43;;;4.50;99.90;;;;;;5036466;28;20079;-74
2022/02/02 23:31:36;;;;;;;77.70;7.75;;;4.60;99.90;;;;;;5036189;28;20018;-74
2022/02/02 23:34:01;;;;;;;82.20;8.77;;;4.60;99.90;;;;;;5036157;28;20052;-74
2022/02/02 23:36:27;;;;;;;71.68;9.75;;;4.60;99.90;;;;;;5036095;28;20432;-74
2022/02/02 23:38:53;;;;;;;58.63;6.32;;;4.70;99.90;;;;;;5036067;28;20041;-74
2022/02/02 23:44:06;;;;;;;82.22;8.60;;;4.80;99.90;;;;;;5036562;28;20079;-74
2022/02/02 23:46:33;;;;;;;55.28;8.20;;;4.80;99.90;;;;;;5035945;28;20029;-74
2022/02/02 23:49:12;;;;;;;79.80;8.95;;;4.80;99.90;;;;;;5035820;28;20026;-74
2022/02/02 23:51:45;;;;;;;73.18;8.00;;;4.80;99.90;;;;;;5035715;28;20037;-74
2022/02/02 23:54:10;;;;;;;64.10;8.18;;;4.80;99.90;;;;;;5036437;28;20021;-74
2022/02/02 23:57:05;;;;;;;62.00;7.57;;;4.90;99.90;;;;;;5036031;28;20030;-74
